createdAt,value
2023-01-04T00:00:00.122Z,1.40
2023-01-04T00:01:00.215Z,1.20
2023-01-04T00:02:00.113Z,1.20
2023-01-04T00:03:00.277Z,1.60
2023-01-04T00:04:00.116Z,1.20
2023-01-04T00:05:00.021Z,1.50
2023-01-04T00:06:00.052Z,1.40
2023-01-04T00:07:00.003Z,1.40
2023-01-04T00:07:59.988Z,1.30
2023-01-04T00:08:59.989Z,1.50
2023-01-04T00:09:59.962Z,1.60
2023-01-04T00:10:59.974Z,1.50
2023-01-04T00:11:59.949Z,1.30
2023-01-04T00:12:59.932Z,1.20
2023-01-04T00:13:59.916Z,1.60
2023-01-04T00:14:59.911Z,1.30
2023-01-04T00:16:05.504Z,1.50
2023-01-04T00:16:59.910Z,1.60
2023-01-04T00:17:59.874Z,1.10
2023-01-04T00:18:59.932Z,1.20
2023-01-04T00:19:59.857Z,1.20
2023-01-04T00:20:59.844Z,1.40
2023-01-04T00:21:59.840Z,1.40
2023-01-04T00:22:59.823Z,1.40
2023-01-04T00:23:59.817Z,1.30
2023-01-04T00:24:59.800Z,1.40
2023-01-04T00:25:59.786Z,1.20
2023-01-04T00:26:59.790Z,1.10
2023-01-04T00:27:59.766Z,1.40
2023-01-04T00:28:59.762Z,1.50
2023-01-04T00:29:59.743Z,1.40
2023-01-04T00:30:59.791Z,1.60
2023-01-04T00:31:59.731Z,1.30
2023-01-04T00:32:59.715Z,1.30
2023-01-04T00:33:59.710Z,1.30
2023-01-04T00:34:59.695Z,1.20
2023-01-04T00:35:59.675Z,1.10
2023-01-04T00:36:59.685Z,1.30
2023-01-04T00:37:59.655Z,1.20
2023-01-04T00:38:59.647Z,1.40
2023-01-04T00:39:59.635Z,1.40
2023-01-04T00:40:59.628Z,1.60
2023-01-04T00:42:00.966Z,1.60
2023-01-04T00:42:59.611Z,1.40
2023-01-04T00:43:59.589Z,1.50
2023-01-04T00:44:59.597Z,1.20
2023-01-04T00:45:59.634Z,1.10
2023-01-04T00:46:59.576Z,0.90
2023-01-04T00:47:59.542Z,1.10
2023-01-04T00:49:00.631Z,1.30
2023-01-04T00:49:59.527Z,1.20
2023-01-04T00:50:59.528Z,1.40
2023-01-04T00:51:59.516Z,1.30
2023-01-04T00:52:59.506Z,1.60
2023-01-04T00:53:59.480Z,1.40
2023-01-04T00:54:59.485Z,1.50
2023-01-04T00:55:59.459Z,1.30
2023-01-04T00:56:59.542Z,1.10
2023-01-04T00:57:59.440Z,1.30
2023-01-04T00:58:59.432Z,1.20
2023-01-04T00:59:59.433Z,1.00
2023-01-04T01:00:59.422Z,1.40
2023-01-04T01:01:59.507Z,1.30
2023-01-04T01:02:59.719Z,1.00
2023-01-04T01:03:59.455Z,1.10
2023-01-04T01:04:59.374Z,1.20
2023-01-04T01:05:59.348Z,1.20
2023-01-04T01:06:59.355Z,1.10
2023-01-04T01:07:59.325Z,1.30
2023-01-04T01:08:59.328Z,1.00
2023-01-04T01:09:59.301Z,1.10
2023-01-04T01:10:59.304Z,1.10
2023-01-04T01:11:59.299Z,1.20
2023-01-04T01:12:59.284Z,1.30
2023-01-04T01:13:59.259Z,1.30
2023-01-04T01:15:00.789Z,1.40
2023-01-04T01:15:59.295Z,1.10
2023-01-04T01:16:59.411Z,0.80
2023-01-04T01:17:59.214Z,1.10
2023-01-04T01:18:59.215Z,1.40
2023-01-04T01:19:59.194Z,1.30
2023-01-04T01:20:59.186Z,1.10
2023-01-04T01:21:59.178Z,1.10
2023-01-04T01:22:59.175Z,0.90
2023-01-04T01:23:59.155Z,1.10
2023-01-04T01:24:59.142Z,1.10
2023-01-04T01:25:59.122Z,1.10
2023-01-04T01:26:59.126Z,0.90
2023-01-04T01:27:59.105Z,1.20
2023-01-04T01:28:59.106Z,1.00
2023-01-04T01:29:59.079Z,1.10
2023-01-04T01:31:02.416Z,1.30
2023-01-04T01:31:59.179Z,1.10
2023-01-04T01:32:59.055Z,1.30
2023-01-04T01:33:59.031Z,1.10
2023-01-04T01:34:59.034Z,1.00
2023-01-04T01:35:59.026Z,1.20
2023-01-04T01:36:59.027Z,1.30
2023-01-04T01:37:58.994Z,0.90
2023-01-04T01:38:58.986Z,1.20
2023-01-04T01:39:58.971Z,1.10
2023-01-04T01:40:58.961Z,1.10
2023-01-04T01:41:58.947Z,1.10
2023-01-04T01:42:58.951Z,1.10
2023-01-04T01:43:58.927Z,1.20
2023-01-04T01:44:58.925Z,1.20
2023-01-04T01:45:58.950Z,1.30
2023-01-04T01:46:58.972Z,1.30
2023-01-04T01:47:58.889Z,1.20
2023-01-04T01:48:58.877Z,1.00
2023-01-04T01:49:58.871Z,1.00
2023-01-04T01:50:58.850Z,1.30
2023-01-04T01:51:58.834Z,1.30
2023-01-04T01:52:58.837Z,1.20
2023-01-04T01:53:58.827Z,1.20
2023-01-04T01:54:58.805Z,1.30
2023-01-04T01:55:58.795Z,1.20
2023-01-04T01:56:58.796Z,1.10
2023-01-04T01:57:58.791Z,1.30
2023-01-04T01:58:58.765Z,1.10
2023-01-04T01:59:58.747Z,1.10
2023-01-04T02:00:58.756Z,1.30
2023-01-04T02:01:58.853Z,1.30
2023-01-04T02:02:58.863Z,0.90
2023-01-04T02:03:58.754Z,1.20
2023-01-04T02:04:58.706Z,1.20
2023-01-04T02:05:58.684Z,1.10
2023-01-04T02:06:58.675Z,1.00
2023-01-04T02:07:58.678Z,1.40
2023-01-04T02:08:58.650Z,1.40
2023-01-04T02:09:58.641Z,1.30
2023-01-04T02:10:58.628Z,1.10
2023-01-04T02:11:58.632Z,1.20
2023-01-04T02:12:58.610Z,1.40
2023-01-04T02:13:58.595Z,1.10
2023-01-04T02:14:58.579Z,1.20
2023-01-04T02:15:58.613Z,1.30
2023-01-04T02:16:58.557Z,1.50
2023-01-04T02:17:58.566Z,1.30
2023-01-04T02:18:58.535Z,1.30
2023-01-04T02:23:32.139Z,1.30
2023-01-04T02:24:33.001Z,1.40
2023-01-04T02:25:32.991Z,1.20
2023-01-04T02:26:32.979Z,1.40
2023-01-04T02:27:32.981Z,1.20
2023-01-04T02:28:32.952Z,1.50
2023-01-04T02:29:32.949Z,1.10
2023-01-04T02:30:32.938Z,1.20
2023-01-04T02:31:33.034Z,1.10
2023-01-04T02:32:32.929Z,1.30
2023-01-04T02:33:32.902Z,1.30
2023-01-04T02:34:32.901Z,0.90
2023-01-04T02:35:32.886Z,1.10
2023-01-04T02:36:32.871Z,1.20
2023-01-04T02:37:32.861Z,1.20
2023-01-04T02:38:32.860Z,1.20
2023-01-04T02:39:32.837Z,1.40
2023-01-04T02:40:32.937Z,1.10
2023-01-04T02:41:32.815Z,1.20
2023-01-04T02:42:32.799Z,1.10
2023-01-04T02:43:32.815Z,1.30
2023-01-04T02:44:32.788Z,1.10
2023-01-04T02:45:32.775Z,1.20
2023-01-04T02:46:32.847Z,1.40
2023-01-04T02:47:32.760Z,1.20
2023-01-04T02:48:32.745Z,1.40
2023-01-04T02:49:32.730Z,1.00
2023-01-04T02:50:32.722Z,1.10
2023-01-04T02:51:32.728Z,1.20
2023-01-04T02:52:32.696Z,1.00
2023-01-04T02:53:32.703Z,1.20
2023-01-04T02:54:32.706Z,1.30
2023-01-04T02:55:32.665Z,1.30
2023-01-04T02:56:32.650Z,1.30
2023-01-04T02:57:32.641Z,1.30
2023-01-04T02:58:32.642Z,1.30
2023-01-04T02:59:32.629Z,1.10
2023-01-04T03:00:32.602Z,1.10
2023-01-04T03:01:32.744Z,1.10
2023-01-04T03:02:32.824Z,1.00
2023-01-04T03:03:32.688Z,1.00
2023-01-04T03:04:32.578Z,1.10
2023-01-04T03:05:32.547Z,1.00
2023-01-04T03:06:32.575Z,1.60
2023-01-04T03:07:32.529Z,1.30
2023-01-04T03:08:32.546Z,1.50
2023-01-04T03:09:32.509Z,1.30
2023-01-04T03:10:32.494Z,1.40
2023-01-04T03:11:32.517Z,1.20
2023-01-04T03:12:32.491Z,1.50
2023-01-04T03:13:32.475Z,1.40
2023-01-04T03:14:33.672Z,1.40
2023-01-04T03:15:32.441Z,1.50
2023-01-04T03:16:32.458Z,1.40
2023-01-04T03:17:32.421Z,1.60
2023-01-04T03:18:32.413Z,1.20
2023-01-04T03:19:32.400Z,1.20
2023-01-04T03:20:32.411Z,1.20
2023-01-04T03:21:32.404Z,0.90
2023-01-04T03:22:32.376Z,1.10
2023-01-04T03:23:32.370Z,1.30
2023-01-04T03:24:32.340Z,1.30
2023-01-04T03:25:32.346Z,1.60
2023-01-04T03:26:32.313Z,1.30
2023-01-04T03:27:32.306Z,1.30
2023-01-04T03:28:32.308Z,1.00
2023-01-04T03:29:32.292Z,1.30
2023-01-04T03:30:32.284Z,1.70
2023-01-04T03:31:32.373Z,1.40
2023-01-04T03:32:32.250Z,1.40
2023-01-04T03:33:32.251Z,1.30
2023-01-04T03:34:32.226Z,1.40
2023-01-04T03:35:32.216Z,1.10
2023-01-04T03:36:32.204Z,1.40
2023-01-04T03:37:32.201Z,1.50
2023-01-04T03:38:32.242Z,1.20
2023-01-04T03:39:32.171Z,1.10
2023-01-04T03:40:32.165Z,1.10
2023-01-04T03:41:32.156Z,1.40
2023-01-04T03:42:32.157Z,1.40
2023-01-04T03:43:32.142Z,1.30
2023-01-04T03:44:32.112Z,1.40
2023-01-04T03:45:32.113Z,1.10
2023-01-04T03:46:32.146Z,1.40
2023-01-04T03:47:32.085Z,1.50
2023-01-04T03:48:32.100Z,1.20
2023-01-04T03:49:32.066Z,1.30
2023-01-04T03:50:32.048Z,0.90
2023-01-04T03:51:32.043Z,1.30
2023-01-04T03:52:32.036Z,1.20
2023-01-04T03:53:32.102Z,1.00
2023-01-04T03:54:32.019Z,1.30
2023-01-04T03:55:32.011Z,1.40
2023-01-04T03:56:31.983Z,1.10
2023-01-04T03:57:31.973Z,1.40
2023-01-04T03:58:31.960Z,1.50
2023-01-04T03:59:31.983Z,1.40
2023-01-04T04:00:32.031Z,1.30
2023-01-04T04:01:32.141Z,1.60
2023-01-04T04:02:31.915Z,1.30
2023-01-04T04:03:31.945Z,1.60
2023-01-04T04:04:31.900Z,1.20
2023-01-04T04:05:31.885Z,1.50
2023-01-04T04:06:31.869Z,1.50
2023-01-04T04:07:31.862Z,1.80
2023-01-04T04:08:31.850Z,1.40
2023-01-04T04:09:31.854Z,1.40
2023-01-04T04:10:31.824Z,1.40
2023-01-04T04:11:31.829Z,1.60
2023-01-04T04:12:31.806Z,1.80
2023-01-04T04:13:31.796Z,1.60
2023-01-04T04:14:31.797Z,1.40
2023-01-04T04:15:31.781Z,1.40
2023-01-04T04:16:31.840Z,1.70
2023-01-04T04:17:31.753Z,1.70
2023-01-04T04:18:31.738Z,1.50
2023-01-04T04:19:31.767Z,1.80
2023-01-04T04:20:31.716Z,2.00
2023-01-04T04:21:31.701Z,1.90
2023-01-04T04:22:31.695Z,1.80
2023-01-04T04:23:31.680Z,2.20
2023-01-04T04:24:31.683Z,2.10
2023-01-04T04:25:31.663Z,2.10
2023-01-04T04:26:31.652Z,2.10
2023-01-04T04:27:31.641Z,2.00
2023-01-04T04:28:31.632Z,1.90
2023-01-04T04:29:31.625Z,1.70
2023-01-04T04:30:31.608Z,1.90
2023-01-04T04:31:31.615Z,1.90
2023-01-04T04:32:31.586Z,1.90
2023-01-04T04:33:31.568Z,2.10
2023-01-04T04:34:31.590Z,2.10
2023-01-04T04:35:31.547Z,2.40
2023-01-04T04:36:31.546Z,1.90
2023-01-04T04:37:31.524Z,1.90
2023-01-04T04:38:31.516Z,2.30
2023-01-04T04:39:31.521Z,2.40
2023-01-04T04:40:31.507Z,2.00
2023-01-04T04:41:31.490Z,2.40
2023-01-04T04:42:31.471Z,2.50
2023-01-04T04:43:31.457Z,2.30
2023-01-04T04:44:31.468Z,2.40
2023-01-04T04:45:31.495Z,2.40
2023-01-04T04:46:31.432Z,2.20
2023-01-04T04:47:31.411Z,2.80
2023-01-04T04:48:31.407Z,2.60
2023-01-04T04:49:31.393Z,2.40
2023-01-04T04:50:31.405Z,2.30
2023-01-04T04:51:31.381Z,2.40
2023-01-04T04:52:31.387Z,1.90
2023-01-04T04:53:31.350Z,2.30
2023-01-04T04:54:31.340Z,2.40
2023-01-04T04:55:31.335Z,2.50
2023-01-04T04:56:31.319Z,2.00
2023-01-04T04:57:31.310Z,2.20
2023-01-04T04:58:31.296Z,2.50
2023-01-04T04:59:31.280Z,2.20
2023-01-04T05:00:31.285Z,2.10
2023-01-04T05:01:31.418Z,1.90
2023-01-04T05:02:31.512Z,2.20
2023-01-04T05:03:31.302Z,2.20
2023-01-04T05:04:31.236Z,2.10
2023-01-04T05:05:31.226Z,1.80
2023-01-04T05:06:31.229Z,2.20
2023-01-04T05:07:31.189Z,2.40
2023-01-04T05:08:31.183Z,2.40
2023-01-04T05:09:31.167Z,2.50
2023-01-04T05:10:31.172Z,2.10
2023-01-04T05:11:31.146Z,2.30
2023-01-04T05:12:31.144Z,2.30
2023-01-04T05:13:31.123Z,2.10
2023-01-04T05:14:31.128Z,2.60
2023-01-04T05:15:31.124Z,2.60
2023-01-04T05:16:31.218Z,2.30
2023-01-04T05:17:31.192Z,2.20
2023-01-04T05:18:31.149Z,2.40
2023-01-04T05:19:31.075Z,2.50
2023-01-04T05:20:31.067Z,2.30
2023-01-04T05:21:31.035Z,1.90
2023-01-04T05:22:31.029Z,2.40
2023-01-04T05:23:31.036Z,1.90
2023-01-04T05:24:31.000Z,2.30
2023-01-04T05:25:31.024Z,2.30
2023-01-04T05:26:30.992Z,2.20
2023-01-04T05:27:30.972Z,2.50
2023-01-04T05:28:30.971Z,2.20
2023-01-04T05:29:30.952Z,2.50
2023-01-04T05:30:30.946Z,2.70
2023-01-04T05:31:31.049Z,2.10
2023-01-04T05:32:30.923Z,2.40
2023-01-04T05:33:30.908Z,2.30
2023-01-04T05:34:30.900Z,2.40
2023-01-04T05:35:30.913Z,2.40
2023-01-04T05:36:30.868Z,2.50
2023-01-04T05:37:30.869Z,1.90
2023-01-04T05:38:30.847Z,2.10
2023-01-04T05:39:30.881Z,2.40
2023-01-04T05:40:30.828Z,2.40
2023-01-04T05:41:30.831Z,2.80
2023-01-04T05:42:30.799Z,2.80
2023-01-04T05:43:30.795Z,2.80
2023-01-04T05:44:30.778Z,2.00
2023-01-04T05:45:30.878Z,2.50
2023-01-04T05:46:31.123Z,2.60
2023-01-04T05:47:30.751Z,2.00
2023-01-04T05:48:30.737Z,2.70
2023-01-04T05:49:30.732Z,2.80
2023-01-04T05:50:30.709Z,3.00
2023-01-04T05:51:30.728Z,2.80
2023-01-04T05:52:30.700Z,3.00
2023-01-04T05:53:30.701Z,3.00
2023-01-04T05:54:30.701Z,3.40
2023-01-04T05:55:30.663Z,3.30
2023-01-04T05:56:30.657Z,2.80
2023-01-04T05:57:30.659Z,2.80
2023-01-04T05:58:30.625Z,3.20
2023-01-04T05:59:34.355Z,2.70
2023-01-04T06:00:30.615Z,3.30
2023-01-04T06:01:30.628Z,3.20
2023-01-04T06:02:30.736Z,2.80
2023-01-04T06:03:30.696Z,2.50
2023-01-04T06:04:30.561Z,3.40
2023-01-04T06:05:30.548Z,2.90
2023-01-04T06:06:30.570Z,3.00
2023-01-04T06:07:30.538Z,3.40
2023-01-04T06:08:30.512Z,3.50
2023-01-04T06:09:30.503Z,2.80
2023-01-04T06:10:30.507Z,4.10
2023-01-04T06:11:30.494Z,3.80
2023-01-04T06:12:30.470Z,2.90
2023-01-04T06:13:30.459Z,2.50
2023-01-04T06:14:30.443Z,3.60
2023-01-04T06:15:30.441Z,4.20
2023-01-04T06:16:30.470Z,3.40
2023-01-04T06:17:30.414Z,3.50
2023-01-04T06:18:30.396Z,4.00
2023-01-04T06:19:30.393Z,3.80
2023-01-04T06:20:30.382Z,4.00
2023-01-04T06:21:30.386Z,3.80
2023-01-04T06:22:30.357Z,3.20
2023-01-04T06:23:30.349Z,3.50
2023-01-04T06:24:30.333Z,4.30
2023-01-04T06:25:30.324Z,3.90
2023-01-04T06:26:30.322Z,4.40
2023-01-04T06:27:30.303Z,3.70
2023-01-04T06:28:34.198Z,3.80
2023-01-04T06:29:30.310Z,4.10
2023-01-04T06:30:30.314Z,4.10
2023-01-04T06:31:30.389Z,4.50
2023-01-04T06:32:30.326Z,4.00
2023-01-04T06:33:30.242Z,4.10
2023-01-04T06:34:31.446Z,3.50
2023-01-04T06:35:30.217Z,3.80
2023-01-04T06:36:30.204Z,4.70
2023-01-04T06:37:30.207Z,3.80
2023-01-04T06:38:30.182Z,4.40
2023-01-04T06:39:30.169Z,3.90
2023-01-04T06:40:30.152Z,3.80
2023-01-04T06:41:30.148Z,4.60
2023-01-04T06:42:30.148Z,4.20
2023-01-04T06:43:30.124Z,4.00
2023-01-04T06:44:30.113Z,3.10
2023-01-04T06:45:30.123Z,3.70
2023-01-04T06:46:30.161Z,4.20
2023-01-04T06:47:30.096Z,4.20
2023-01-04T06:48:30.111Z,3.90
2023-01-04T06:49:30.065Z,4.20
2023-01-04T06:50:30.042Z,3.70
2023-01-04T06:51:30.051Z,3.40
2023-01-04T06:52:30.035Z,4.40
2023-01-04T06:53:30.024Z,4.70
2023-01-04T06:54:30.000Z,4.10
2023-01-04T06:55:30.044Z,4.60
2023-01-04T06:56:29.990Z,3.90
2023-01-04T06:57:30.043Z,4.10
2023-01-04T06:58:30.023Z,3.90
2023-01-04T06:59:30.001Z,4.10
2023-01-04T07:00:30.054Z,4.00
2023-01-04T07:01:30.051Z,4.70
2023-01-04T07:02:30.118Z,4.60
2023-01-04T07:03:29.909Z,4.30
2023-01-04T07:04:29.934Z,4.40
2023-01-04T07:05:29.912Z,4.00
2023-01-04T07:06:29.872Z,3.80
2023-01-04T07:07:29.878Z,3.90
2023-01-04T07:08:29.854Z,4.00
2023-01-04T07:09:29.843Z,3.50
2023-01-04T07:10:29.859Z,4.50
2023-01-04T07:11:29.819Z,4.10
2023-01-04T07:12:29.831Z,3.80
2023-01-04T07:13:29.795Z,4.30
2023-01-04T07:14:29.779Z,4.10
2023-01-04T07:15:39.538Z,4.30
2023-01-04T07:16:29.933Z,4.40
2023-01-04T07:17:30.229Z,3.80
2023-01-04T07:18:29.742Z,3.60
2023-01-04T07:19:29.737Z,3.90
2023-01-04T07:20:29.838Z,3.90
2023-01-04T07:21:29.705Z,4.50
2023-01-04T07:22:29.706Z,3.80
2023-01-04T07:23:29.697Z,4.30
2023-01-04T07:24:30.547Z,4.40
2023-01-04T07:25:29.662Z,4.60
2023-01-04T07:26:29.647Z,4.80
2023-01-04T07:27:29.657Z,4.20
2023-01-04T07:28:29.625Z,4.70
2023-01-04T07:29:29.615Z,5.00
2023-01-04T07:30:29.635Z,4.10
2023-01-04T07:31:29.660Z,4.30
2023-01-04T07:32:29.578Z,4.00
2023-01-04T07:33:30.111Z,3.20
2023-01-04T07:34:29.558Z,4.50
2023-01-04T07:35:29.560Z,4.20
2023-01-04T07:36:29.537Z,4.70
2023-01-04T07:37:29.530Z,4.70
2023-01-04T07:38:29.583Z,3.80
2023-01-04T07:39:29.510Z,4.70
2023-01-04T07:40:29.604Z,4.00
2023-01-04T07:41:29.496Z,4.50
2023-01-04T07:42:29.465Z,4.50
2023-01-04T07:43:29.477Z,3.80
2023-01-04T07:44:29.445Z,4.40
2023-01-04T07:45:29.440Z,3.60
2023-01-04T07:46:29.505Z,4.30
2023-01-04T07:47:29.421Z,3.90
2023-01-04T07:48:29.423Z,3.70
2023-01-04T07:49:29.395Z,3.30
2023-01-04T07:50:29.381Z,4.00
2023-01-04T07:51:29.388Z,4.40
2023-01-04T07:52:29.360Z,3.90
2023-01-04T07:53:29.376Z,4.00
2023-01-04T07:54:29.345Z,4.50
2023-01-04T07:55:29.333Z,4.30
2023-01-04T07:56:29.313Z,4.00
2023-01-04T07:57:29.311Z,3.00
2023-01-04T07:58:29.301Z,3.00
2023-01-04T07:59:29.294Z,4.50
2023-01-04T08:00:29.270Z,4.60
2023-01-04T08:01:29.397Z,4.20
2023-01-04T08:02:29.444Z,3.80
2023-01-04T08:03:29.256Z,3.70
2023-01-04T08:04:34.536Z,4.50
2023-01-04T08:05:29.226Z,4.40
2023-01-04T08:06:29.207Z,4.00
2023-01-04T08:07:29.206Z,4.20
2023-01-04T08:08:29.196Z,3.60
2023-01-04T08:09:29.196Z,4.40
2023-01-04T08:10:29.161Z,4.20
2023-01-04T08:11:29.165Z,4.10
2023-01-04T08:12:29.140Z,4.40
2023-01-04T08:13:29.130Z,4.10
2023-01-04T08:14:29.126Z,3.80
2023-01-04T08:15:29.161Z,3.80
2023-01-04T08:16:29.168Z,4.10
2023-01-04T08:17:29.085Z,3.90
2023-01-04T08:18:29.072Z,3.10
2023-01-04T08:19:29.086Z,3.60
2023-01-04T08:20:29.066Z,3.00
2023-01-04T08:21:29.048Z,3.60
2023-01-04T08:22:29.029Z,4.00
2023-01-04T08:23:29.014Z,3.70
2023-01-04T08:24:29.028Z,3.70
2023-01-04T08:25:28.994Z,3.70
2023-01-04T08:26:28.990Z,3.10
2023-01-04T08:27:28.971Z,3.40
2023-01-04T08:28:28.963Z,3.50
2023-01-04T08:29:34.510Z,3.10
2023-01-04T08:30:28.954Z,3.00
2023-01-04T08:31:28.976Z,3.20
2023-01-04T08:32:28.937Z,2.80
2023-01-04T08:33:28.930Z,2.90
2023-01-04T08:34:28.903Z,2.50
2023-01-04T08:35:28.888Z,3.30
2023-01-04T08:36:28.878Z,3.20
2023-01-04T08:37:28.912Z,3.50
2023-01-04T08:38:58.861Z,3.10
2023-01-04T08:39:28.884Z,2.70
2023-01-04T08:40:59.766Z,2.70
2023-01-04T08:42:31.786Z,3.00
2023-01-04T08:43:28.804Z,3.40
2023-01-04T08:44:28.792Z,3.00
2023-01-04T08:45:28.776Z,3.40
2023-01-04T08:46:28.809Z,3.00
2023-01-04T08:47:28.756Z,1.70
2023-01-04T08:48:28.739Z,3.30
2023-01-04T08:49:28.742Z,2.70
2023-01-04T08:50:28.717Z,3.40
2023-01-04T08:51:28.713Z,2.70
2023-01-04T08:52:28.704Z,2.80
2023-01-04T08:53:28.695Z,3.10
2023-01-04T08:54:28.699Z,3.00
2023-01-04T08:55:28.669Z,3.20
2023-01-04T08:56:28.663Z,2.30
2023-01-04T08:57:28.644Z,2.40
2023-01-04T08:58:28.646Z,2.10
2023-01-04T08:59:28.631Z,2.90
2023-01-04T09:00:28.609Z,2.90
2023-01-04T09:01:28.741Z,2.70
2023-01-04T09:02:28.694Z,2.60
2023-01-04T09:03:28.578Z,1.90
2023-01-04T09:04:28.592Z,2.90
2023-01-04T09:05:28.554Z,2.40
2023-01-04T09:06:28.548Z,3.00
2023-01-04T09:07:28.539Z,3.10
2023-01-04T09:08:28.546Z,3.40
2023-01-04T09:09:28.527Z,2.50
2023-01-04T09:10:28.505Z,2.80
2023-01-04T09:11:28.496Z,2.70
2023-01-04T09:12:28.475Z,2.70
2023-01-04T09:13:28.469Z,2.70
2023-01-04T09:14:28.451Z,2.30
2023-01-04T09:15:28.452Z,2.30
2023-01-04T09:16:28.501Z,1.80
2023-01-04T09:17:28.422Z,2.70
2023-01-04T09:18:32.810Z,2.70
2023-01-04T09:19:28.406Z,2.30
2023-01-04T09:20:28.408Z,1.90
2023-01-04T09:21:28.513Z,2.30
2023-01-04T09:22:28.513Z,1.70
2023-01-04T09:23:28.357Z,2.00
2023-01-04T09:24:28.339Z,1.80
2023-01-04T09:25:28.344Z,2.10
2023-01-04T09:26:28.323Z,1.90
2023-01-04T09:27:28.318Z,2.00
2023-01-04T09:28:28.302Z,1.70
2023-01-04T09:29:28.285Z,2.10
2023-01-04T09:30:28.282Z,2.00
2023-01-04T09:31:28.389Z,2.00
2023-01-04T09:32:28.251Z,1.70
2023-01-04T09:33:55.793Z,1.90
2023-01-04T09:34:28.246Z,2.20
2023-01-04T09:35:28.252Z,1.50
2023-01-04T09:36:28.203Z,1.20
2023-01-04T09:37:28.198Z,0.50
2023-01-04T09:38:28.184Z,0.10
2023-01-04T09:39:28.175Z,0.10
2023-01-04T09:40:28.187Z,0.00
2023-01-04T09:41:28.166Z,0.00
2023-01-04T09:42:33.437Z,0.00
2023-01-04T09:43:28.137Z,0.00
2023-01-04T09:44:54.363Z,0.00
2023-01-04T09:45:28.122Z,0.00
2023-01-04T09:46:28.139Z,0.00
2023-01-04T09:47:28.121Z,0.00
2023-01-04T09:48:28.077Z,0.00
2023-01-04T09:49:28.074Z,0.00
2023-01-04T09:50:28.050Z,0.00
2023-01-04T09:51:28.105Z,0.00
2023-01-04T09:52:28.026Z,0.00
2023-01-04T09:53:28.027Z,0.00
2023-01-04T09:55:38.024Z,0.00
2023-01-04T09:56:27.987Z,0.00
2023-01-04T09:57:27.974Z,0.00
2023-01-04T09:58:27.960Z,0.00
2023-01-04T09:59:27.954Z,0.00
2023-01-04T10:00:28.005Z,0.00
2023-01-04T10:01:28.155Z,0.00
2023-01-04T10:02:28.150Z,0.00
2023-01-04T10:03:27.928Z,0.00
2023-01-04T10:04:27.921Z,0.00
2023-01-04T10:05:27.938Z,0.00
2023-01-04T10:06:27.880Z,0.00
2023-01-04T10:07:27.871Z,0.00
2023-01-04T10:08:27.845Z,0.00
2023-01-04T10:09:27.844Z,0.00
2023-01-04T10:10:27.905Z,0.00
2023-01-04T10:11:27.818Z,0.00
2023-01-04T10:12:27.801Z,0.00
2023-01-04T10:13:27.794Z,0.00
2023-01-04T10:14:27.786Z,0.00
2023-01-04T10:15:27.792Z,0.00
2023-01-04T10:16:52.536Z,0.00
2023-01-04T10:17:57.634Z,0.00
2023-01-04T10:21:33.628Z,0.00
2023-01-04T10:22:27.712Z,0.00
2023-01-04T10:23:27.693Z,0.00
2023-01-04T10:24:27.671Z,0.00
2023-01-04T10:25:27.673Z,0.00
2023-01-04T10:26:27.663Z,0.00
2023-01-04T10:27:27.637Z,0.00
2023-01-04T10:28:27.626Z,0.00
2023-01-04T10:29:27.616Z,0.00
2023-01-04T10:30:27.600Z,0.00
2023-01-04T10:31:39.669Z,0.00
2023-01-04T10:32:27.624Z,0.00
2023-01-04T10:33:27.574Z,0.00
2023-01-04T10:34:27.560Z,0.00
2023-01-04T10:35:27.546Z,0.00
2023-01-04T10:36:27.546Z,0.00
2023-01-04T10:37:27.527Z,0.00
2023-01-04T10:38:27.520Z,0.00
2023-01-04T10:39:32.272Z,0.00
2023-01-04T10:40:27.508Z,1.40
2023-01-04T10:41:27.495Z,1.80
2023-01-04T10:42:27.620Z,2.10
2023-01-04T10:43:27.465Z,2.30
2023-01-04T10:44:27.459Z,2.60
2023-01-04T10:45:27.458Z,2.70
2023-01-04T10:46:27.480Z,2.40
2023-01-04T10:47:27.433Z,2.60
2023-01-04T10:48:27.409Z,2.90
2023-01-04T10:49:27.394Z,3.10
2023-01-04T10:50:27.389Z,2.90
2023-01-04T10:51:27.386Z,2.90
2023-01-04T10:52:27.372Z,2.80
2023-01-04T10:53:27.353Z,3.20
2023-01-04T10:54:27.343Z,2.90
2023-01-04T10:55:27.336Z,3.40
2023-01-04T10:56:27.715Z,2.60
2023-01-04T10:57:27.313Z,2.00
2023-01-04T10:58:27.295Z,3.40
2023-01-04T10:59:27.286Z,3.30
2023-01-04T11:00:27.268Z,1.90
2023-01-04T11:01:27.443Z,2.80
2023-01-04T11:02:27.536Z,2.90
2023-01-04T11:03:27.330Z,2.90
2023-01-04T11:04:27.230Z,2.60
2023-01-04T11:05:27.218Z,3.20
2023-01-04T11:06:27.216Z,3.30
2023-01-04T11:07:27.195Z,2.90
2023-01-04T11:08:27.185Z,2.60
2023-01-04T11:09:27.180Z,2.80
2023-01-04T11:10:27.155Z,2.80
2023-01-04T11:11:27.163Z,2.90
2023-01-04T11:12:27.134Z,2.70
2023-01-04T11:13:27.134Z,2.80
2023-01-04T11:14:33.335Z,2.50
2023-01-04T11:15:27.113Z,2.80
2023-01-04T11:16:27.618Z,2.70
2023-01-04T11:17:27.086Z,2.40
2023-01-04T11:18:27.074Z,2.50
2023-01-04T11:19:27.107Z,2.70
2023-01-04T11:20:27.839Z,2.10
2023-01-04T11:21:27.051Z,2.80
2023-01-04T11:22:27.065Z,2.00
2023-01-04T11:23:27.013Z,2.80
2023-01-04T11:24:34.443Z,2.40
2023-01-04T11:25:35.995Z,2.00
2023-01-04T11:26:27.004Z,2.40
2023-01-04T11:27:27.259Z,2.50
2023-01-04T11:28:26.960Z,1.80
2023-01-04T11:29:27.018Z,2.50
2023-01-04T11:30:26.941Z,2.70
2023-01-04T11:31:26.979Z,2.50
2023-01-04T11:32:26.917Z,1.70
2023-01-04T11:33:26.919Z,2.70
2023-01-04T11:34:26.897Z,2.50
2023-01-04T11:35:26.881Z,2.50
2023-01-04T11:36:26.954Z,2.10
2023-01-04T11:37:26.875Z,2.70
2023-01-04T11:38:26.852Z,2.50
2023-01-04T11:39:26.859Z,3.00
2023-01-04T11:40:26.830Z,2.80
2023-01-04T11:41:26.814Z,1.70
2023-01-04T11:42:26.818Z,2.90
2023-01-04T11:43:26.791Z,2.30
2023-01-04T11:44:26.784Z,2.90
2023-01-04T11:45:26.801Z,2.00
2023-01-04T11:46:26.850Z,2.70
2023-01-04T11:47:29.865Z,2.10
2023-01-04T11:48:26.762Z,2.70
2023-01-04T11:49:26.726Z,2.70
2023-01-04T11:50:26.722Z,2.50
2023-01-04T11:51:26.746Z,2.60
2023-01-04T11:52:26.726Z,2.80
2023-01-04T11:53:26.684Z,2.70
2023-01-04T11:54:26.695Z,2.30
2023-01-04T11:55:26.659Z,2.90
2023-01-04T11:56:26.663Z,2.70
2023-01-04T11:57:26.646Z,2.60
2023-01-04T11:58:26.629Z,3.00
2023-01-04T11:59:26.620Z,2.70
2023-01-04T12:00:26.676Z,2.50
2023-01-04T12:01:26.631Z,2.80
2023-01-04T12:03:26.581Z,3.00
2023-01-04T12:04:26.566Z,3.10
2023-01-04T12:05:30.386Z,3.20
2023-01-04T12:06:26.547Z,3.10
2023-01-04T12:07:26.537Z,3.20
2023-01-04T12:08:26.520Z,3.10
2023-01-04T12:09:26.509Z,2.90
2023-01-04T12:10:26.522Z,2.50
2023-01-04T12:11:26.485Z,2.90
2023-01-04T12:12:26.490Z,2.90
2023-01-04T12:13:26.493Z,3.10
2023-01-04T12:14:26.452Z,2.70
2023-01-04T12:15:26.439Z,2.60
2023-01-04T12:16:26.447Z,2.80
2023-01-04T12:17:26.427Z,2.40
2023-01-04T12:18:26.421Z,2.30
2023-01-04T12:19:26.392Z,2.90
2023-01-04T12:20:26.392Z,3.20
2023-01-04T12:21:26.405Z,2.70
2023-01-04T12:22:26.372Z,3.30
2023-01-04T12:23:26.348Z,2.80
2023-01-04T12:24:26.345Z,2.90
2023-01-04T12:25:26.335Z,2.40
2023-01-04T12:26:26.345Z,2.80
2023-01-04T12:27:26.313Z,2.50
2023-01-04T12:28:26.299Z,3.00
2023-01-04T12:29:26.282Z,2.60
2023-01-04T12:30:26.319Z,2.70
2023-01-04T12:31:26.271Z,2.60
2023-01-04T12:32:26.268Z,3.00
2023-01-04T12:33:26.237Z,2.80
2023-01-04T12:34:26.232Z,3.10
2023-01-04T12:35:26.217Z,3.10
2023-01-04T12:36:26.216Z,2.50
2023-01-04T12:37:26.203Z,3.30
2023-01-04T12:38:26.189Z,2.50
2023-01-04T12:39:26.177Z,2.40
2023-01-04T12:40:26.165Z,3.00
2023-01-04T12:41:26.151Z,1.90
2023-01-04T12:42:26.152Z,2.70
2023-01-04T12:43:26.137Z,2.50
2023-01-04T12:44:26.127Z,2.60
2023-01-04T12:45:26.105Z,1.30
2023-01-04T12:46:26.233Z,2.90
2023-01-04T12:47:26.103Z,1.90
2023-01-04T12:48:26.077Z,2.90
2023-01-04T12:49:26.066Z,2.90
2023-01-04T12:50:26.061Z,2.60
2023-01-04T12:51:34.072Z,2.20
2023-01-04T12:52:42.971Z,2.60
2023-01-04T12:53:30.402Z,2.90
2023-01-04T12:54:26.004Z,2.70
2023-01-04T12:55:26.004Z,2.50
2023-01-04T12:56:25.981Z,2.70
2023-01-04T12:57:26.890Z,2.80
2023-01-04T12:58:43.857Z,3.00
2023-01-04T12:59:26.512Z,2.90
2023-01-04T13:00:25.937Z,3.10
2023-01-04T13:01:26.099Z,3.10
2023-01-04T13:02:26.206Z,2.40
2023-01-04T13:03:25.982Z,2.90
2023-01-04T13:04:25.899Z,2.90
2023-01-04T13:05:54.765Z,3.00
2023-01-04T13:06:25.880Z,3.10
2023-01-04T13:07:25.871Z,2.30
2023-01-04T13:08:25.863Z,2.70
2023-01-04T13:09:25.846Z,2.70
2023-01-04T13:10:25.827Z,2.60
2023-01-04T13:11:25.826Z,2.50
2023-01-04T13:12:26.623Z,2.40
2023-01-04T13:13:25.808Z,2.90
2023-01-04T13:14:25.787Z,2.40
2023-01-04T13:15:25.788Z,2.50
2023-01-04T13:16:25.765Z,2.60
2023-01-04T13:17:25.878Z,2.40
2023-01-04T13:18:25.751Z,2.70
2023-01-04T13:19:25.737Z,2.60
2023-01-04T13:20:25.745Z,1.90
2023-01-04T13:21:25.709Z,2.00
2023-01-04T13:22:29.139Z,2.30
2023-01-04T13:23:25.699Z,2.10
2023-01-04T13:24:25.677Z,2.00
2023-01-04T13:25:25.678Z,1.90
2023-01-04T13:26:25.654Z,2.00
2023-01-04T13:27:25.655Z,2.20